Arcata Airport
KACV : rendu visible

Aérodrome :











RETROUVEZ-NOUS SUR...

 
LOGIN :

S'inscrire | Disclaimer

   EN    FR    IT 

 









Légende :    VFR   VFR Marginal   IFR   IFR Intensif   IFR Très Intensif
Visi : 
Plafond : 
>= 8 km
>= 3000ft
5 à 8 km
1000 à 3000 ft
1500m à 5 km
500 à 1000 ft
800 à 1500m
200 à 500 ft
< 800m
< 200 ft
Symboles :   Orages  Brouillard  Fortes neiges  Fortes précipitations  Vent > 20 kt






- Altitude de l'aérodrome : 221 ft
- Code IATA : ACV


KACV - Arcata

DERNIER METAR :
  • 232003Z AUTO 20005KT 10SM FEW019 OVC028 12/07 A3044 RMK AO2 T01220067

METARs EXPIRÉS :
  • 231953Z AUTO 15004KT 10SM SCT019 OVC030 12/07 A3044 RMK AO2 SLP312 T01220067
  • 231853Z AUTO 23006KT 7SM OVC024 11/06 A3043 RMK AO2 SLP309 T01060056
  • 231829Z AUTO 19004KT 10SM BKN024 BKN030 OVC037 12/06 A3042 RMK AO2 T01170056
  • 231753Z AUTO 14005KT 10SM SCT024 BKN055 11/05 A3039 RMK AO2 SLP298 T01060050 10106 20083 53019

TAF KACV
Valide du 23 à 18h jusqu'au 24 à 18h UTC


231733Z 2318/2418 VRB04KT P6SM OVC040
FM231900 VRB04KT 6SM -DZ BR SCT015 BKN020 OVC030
FM240000 34009KT P6SM SCT030 BKN250
FM240300 VRB03KT P6SM FEW030 FEW250
FM240700 09004KT P6SM FEW150



MET'MAP, la Météo Aéronautique d'un coup d'oeil ! - Copyright ORBIFLY Décembre 2007 - Disclaimer

ORBIFLY MET'MAP TEAM :

Programmation & Développement : Alexandra Zaïnal
Sur une idée originale de : Baudouin d'Aumeries
Assistance à la programmation : Marc-Olivier Méhu
Soutien technique & logistique : Manuel Goepfert

Contact : metmap@orbifly.com




SOURCES & CREDITS :

   NOAA       Earth
Advisory